ADDS METAR Data INFO
IDs: Format: Raw Decoded Include TAF

Data at: 1942 UTC 17 Feb 2018

KOTG 171856Z AUTO 28019KT 9SM CLR 00/M03 A2994 RMK AO2 SLP161 T00001033 FZRANO
KOTG 171756Z AUTO 27015KT 10SM SCT065 SCT100 BKN110 M01/M04 A2993 RMK AO2 SNE10 SLP160 P0000 60000 T10111039 11006 21056 53014 FZRANO
KOTG 171723Z AUTO 27016KT 9SM SCT004 BKN120 M01/M04 A2992 RMK AO2 SNE10 P0000 FZRANO
KOTG 171705Z AUTO 28009KT 5SM -SN OVC004 M02/M04 A2992 RMK AO2 P0000 FZRANO
KOTG 171656Z AUTO 28010KT 2 1/2SM -SN BR OVC004 M02/M04 A2991 RMK AO2 SLP155 P0000 T10221044 FZRANO
KOTG 171633Z AUTO 28012KT 2 1/2SM -SN BR OVC004 M03/M05 A2991 RMK AO2 P0000 FZRANO
KOTG 171619Z AUTO 28012KT 1 1/2SM -SN BR OVC004 M03/M05 A2989 RMK AO2 P0000 FZRANO
KOTG 171556Z AUTO 27014KT 2SM -SN BR OVC004 M04/M06 A2988 RMK AO2 VIS 1 3/4V2 1/2 SNB48 SLP147 P0000 T10391056 FZRANO
KOTG 171540Z AUTO 26018KT 7SM OVC004 M04/M06 A2988 RMK AO2 FZRANO
KOTG 171524Z AUTO 25011KT 10SM BKN006 BKN050 M04/M06 A2988 RMK AO2 FZRANO
KOTG 171516Z AUTO 24011KT 10SM SCT006 BKN050 M05/M06 A2987 RMK AO2 FZRANO
KOTG 171456Z AUTO 24012KT 10SM SCT011 M05/M07 A2987 RMK AO2 SNE24 SLP144 P0000 60000 T10501067 53005 FZRANO
KOTG 171429Z AUTO 25010KT 9SM BKN011 BKN018 M05/M07 A2987 RMK AO2 SNE24 P0000 FZRANO
KOTG 171356Z AUTO 23010KT 3SM -SN BR FEW018 BKN024 OVC035 M06/M07 A2987 RMK AO2 SLP144 P0000 T10561067 FZRANO
KOTG 171345Z AUTO 23009KT 3SM -SN BR SCT018 BKN029 OVC035 M06/M07 A2986 RMK AO2 P0000 FZRANO
KOTG 171334Z AUTO 23007KT 1 1/4SM -SN BR BKN018 OVC029 M06/M07 A2986 RMK AO2 P0000 FZRANO
KOTG 171324Z AUTO 22009KT 1SM -SN BR OVC018 M06/M07 A2986 RMK AO2 P0000 FZRANO
KOTG 171303Z AUTO 21010KT 1 3/4SM -SN BR FEW011 OVC016 M06/M07 A2985 RMK AO2 P0000 FZRANO
KOTG 171256Z AUTO 21010KT 1 3/4SM -SN BR OVC014 M06/M07 A2986 RMK AO2 SLP140 P0000 T10561067 FZRANO
KOTG 171218Z AUTO 21009KT 1 3/4SM -SN BR BKN013 OVC018 M06/M07 A2986 RMK AO2 P0000 FZRANO
KOTG 171156Z AUTO 21010KT 2SM -SN BR OVC017 M06/M07 A2986 RMK AO2 SNB15 SLP140 P0000 60000 T10561072 11050 21067 56004 FZRANO
KOTG 171154Z AUTO 21010KT 2SM -SN BR OVC017 M06/M07 A2986 RMK AO2 SNB15 P0000 FZRANO
KOTG 171147Z AUTO 22010KT 1 3/4SM -SN BR BKN017 OVC031 M06/M08 A2986 RMK AO2 SNB15 P0000 FZRANO
KOTG 171138Z AUTO 22009KT 2SM -SN SCT017 BKN024 OVC031 M05/M08 A2986 RMK AO2 SNB15 P0000 FZRANO
KOTG 171124Z AUTO 21009KT 6SM -SN SCT022 OVC031 M05/M09 A2985 RMK AO2 SNB15 P0000 FZRANO
KOTG 171056Z AUTO 21011KT 10SM OVC024 M05/M09 A2985 RMK AO2 SLP137 T10501089 FZRANO
KOTG 171004Z AUTO 22010KT 10SM BKN020 OVC110 M05/M09 A2987 RMK AO2 FZRANO
KOTG 170956Z AUTO 21010KT 10SM SCT020 OVC110 M05/M09 A2987 RMK AO2 SLP144 T10501094 FZRANO
KOTG 170856Z AUTO 21015KT 10SM BKN070 M05/M09 A2990 RMK AO2 SLP153 T10501094 58011 FZRANO
KOTG 170756Z AUTO 21017KT 10SM OVC070 M05/M09 A2992 RMK AO2 SLP160 T10501094 FZRANO
KOTG 170656Z AUTO 20017G24KT 10SM BKN100 M06/M10 A2992 RMK AO2 SLP162 T10561100 FZRANO
KOTG 170556Z AUTO 20018KT 10SM CLR M07/M11 A2993 RMK AO2 SLP168 T10671106 11067 21089 410671189 58028 FZRANO
KOTG 170456Z AUTO 20017KT 10SM CLR M07/M11 A2996 RMK AO2 PK WND 20026/0357 SLP179 T10671111 FZRANO
KOTG 170356Z AUTO 19020KT 10SM CLR M07/M11 A2999 RMK AO2 SLP190 T10721111 FZRANO
KOTG 170256Z AUTO 19020G25KT 10SM CLR M08/M11 A3002 RMK AO2 SLP201 T10781111 58020 FZRANO
KOTG 170156Z AUTO 19018KT 10SM CLR M08/M12 A3006 RMK AO2 PK WND 20026/0058 SLP216 T10831117 FZRANO
KOTG 170056Z AUTO 20018KT 10SM CLR M09/M12 A3008 RMK AO2 SLP226 T10891122 FZRANO
KOTG 162356Z AUTO 20018KT 10SM CLR M09/M13 A3008 RMK AO2 SLP226 T10891128 11083 21111 56034 FZRANO
KOTG 162256Z AUTO 19015KT 10SM CLR M09/M14 A3011 RMK AO2 PRESFR SLP237 T10891139 FZRANO
KOTG 162156Z AUTO 19015KT 10SM CLR M08/M14 A3015 RMK AO2 SLP247 T10831139 FZRANO
KOTG 162056Z AUTO 19017KT 10SM CLR M09/M15 A3018 RMK AO2 SLP260 T10891150 58043 FZRANO
KOTG 161956Z AUTO 21016KT 10SM CLR M09/M16 A3024 RMK AO2 SLP278 T10891156 FZRANO
KOTG 161856Z AUTO 22015KT 10SM CLR M11/M17 A3028 RMK AO2 SLP292 T11061167 FZRANO
KOTG 161756Z AUTO 23012KT 10SM CLR M11/M19 A3032 RMK AO2 SLP307 T11111189 11111 21189 58010 FZRANO
KOTG 161656Z AUTO 23013KT 10SM CLR M13/M19 A3033 RMK AO2 SLP311 T11331189 FZRANO
KOTG 161556Z AUTO 23011KT 10SM CLR M14/M20 A3034 RMK AO2 SLP316 T11441200 FZRANO
KOTG 161456Z AUTO 26008KT 10SM CLR M16/M21 A3035 RMK AO2 SLP318 T11561206 58002 FZRANO
KOTG 161356Z AUTO 26010KT 10SM CLR M18/M22 A3035 RMK AO2 SLP322 T11781217 FZRANO
KOTG 161256Z AUTO 28007KT 10SM CLR M18/M22 A3035 RMK AO2 SLP321 T11831217 FZRANO TSNO
KOTG 161156Z AUTO 30011KT 10SM CLR M19/M22 A3035 RMK AO2 SLP320 T11891217 11150 21189 51006 FZRANO
KOTG 161056Z AUTO 30008KT 10SM CLR M18/M22 A3034 RMK AO2 SLP315 T11831217 FZRANO
KOTG 160956Z AUTO 32010KT 10SM CLR M17/M21 A3034 RMK AO2 SLP313 T11671211 FZRANO
KOTG 160856Z AUTO 32015KT 10SM CLR M16/M20 A3033 RMK AO2 SLP308 T11611200 53015 FZRANO
KOTG 160756Z AUTO 32015KT 10SM CLR M16/M20 A3032 RMK AO2 SLP302 T11611200 FZRANO